CDT,Max TemperatureF,Mean TemperatureF,Min TemperatureF,Max Dew PointF,MeanDew PointF,Min DewpointF,Max Humidity, Mean Humidity, Min Humidity, Max Sea Level PressureIn, Mean Sea Level PressureIn, Min Sea Level PressureIn, Max VisibilityMiles, Mean VisibilityMiles, Min VisibilityMiles, Max Wind SpeedMPH, Mean Wind SpeedMPH, Max Gust SpeedMPH,PrecipitationIn, CloudCover, Events, WindDirDegrees
2012-6-1,82,74,64,68,62,49,100,78,31,29.96,29.88,29.82,10,7,2,14,5,21,0.01,4,,329
2012-6-2,89,72,55,62,54,43,96,58,24,30.04,29.97,29.91,10,10,10,9,2,,0.00,1,,173
2012-6-3,93,78,62,72,66,60,100,77,37,30.05,29.98,29.91,10,8,0,9,2,16,0.00,3,Fog,225
2012-6-4,91,78,66,72,69,65,100,73,41,29.98,29.91,29.79,10,9,0,12,4,,0.00,3,Fog,246
2012-6-5,93,83,73,73,70,64,100,73,39,29.83,29.78,29.69,10,10,9,13,6,20,0.00,4,,281
2012-6-6,91,82,72,71,68,63,91,67,43,29.88,29.81,29.75,10,10,10,12,3,17,0.00,1,,22
2012-6-7,91,81,71,70,65,59,85,64,36,29.92,29.89,29.85,10,10,9,14,5,17,0.00,2,,24
2012-6-8,87,80,72,72,69,64,91,79,48,29.96,29.91,29.86,10,9,7,14,3,22,0.00,4,Thunderstorm,89
2012-6-9,81,76,71,75,71,69,94,86,74,29.90,29.85,29.79,10,10,7,10,3,18,0.07,6,Rain-Thunderstorm,106
2012-6-10,82,76,71,75,72,70,100,95,70,29.95,29.88,29.82,10,9,1,13,3,16,0.44,7,Rain-Thunderstorm,153
2012-6-11,91,81,71,76,74,66,100,82,57,30.18,30.00,29.94,10,8,4,12,6,26,0.01,5,Rain-Thunderstorm,199
2012-6-12,82,74,66,68,67,65,97,83,56,30.17,30.05,29.96,10,10,5,18,6,26,0.16,3,Rain,297
2012-6-13,89,78,66,69,67,63,100,74,42,30.04,29.99,29.92,10,10,8,9,3,,0.01,2,,332
2012-6-14,88,78,69,70,68,64,96,79,46,30.03,29.98,29.94,10,10,8,18,2,26,0.02,2,Rain-Thunderstorm,292
2012-6-15,88,78,68,73,68,63,100,77,51,30.07,30.03,29.97,10,10,4,12,3,17,0.02,2,Rain-Thunderstorm,153
2012-6-16,89,78,68,70,64,59,93,67,37,30.12,30.07,30.01,10,10,8,9,3,,0.00,0,,88
2012-6-17,87,75,63,70,65,62,97,69,48,30.06,30.01,29.93,10,10,6,12,3,17,0.00,0,,139
2012-6-18,88,80,71,72,67,62,96,70,42,30.00,29.96,29.92,10,10,8,17,7,23,0.00,2,,146
2012-6-19,89,79,69,71,66,63,97,68,45,30.06,30.03,29.99,10,10,9,14,4,21,0.00,1,,135
2012-6-20,91,80,68,69,64,58,93,65,33,30.07,30.02,29.96,10,10,6,12,3,26,0.01,2,,128
2012-6-21,91,80,68,67,62,55,93,60,32,30.04,29.97,29.90,10,10,10,12,2,17,0.00,0,,33
2012-6-22,93,78,64,71,63,59,90,56,33,29.93,29.88,29.82,10,10,10,9,3,17,0.00,2,,38
2012-6-23,97,84,72,74,68,63,93,63,33,29.91,29.86,29.83,10,10,8,9,3,16,0.00,1,,85
2012-6-24,99,86,73,74,70,64,97,64,33,29.90,29.84,29.78,10,10,8,12,3,17,0.00,1,,4
2012-6-25,100,88,75,69,64,58,67,47,25,29.81,29.74,29.68,10,10,10,16,8,25,0.00,0,,359
2012-6-26,100,90,80,67,62,54,62,43,22,29.80,29.73,29.69,10,10,10,14,7,24,0.00,0,,16
2012-6-27,102,84,68,77,62,51,88,50,19,29.99,29.90,29.80,10,10,7,14,4,,0.00,0,,144
2012-6-28,100,87,75,77,72,60,100,75,28,30.08,30.03,29.98,10,6,0,9,2,,0.00,3,Fog,216
2012-6-29,100,87,75,75,69,62,94,60,30,30.04,29.97,29.88,10,9,6,9,4,,0.00,0,,224
2012-6-30,98,86,73,74,67,58,97,60,28,29.97,29.93,29.89,10,9,4,14,4,18,0.00,0,,203